sensor_id;sensor_type;location;lat;lon;timestamp;temperature;humidity
76759;DHT22;65701;45.588;5.186;2023-05-10T05:18:22;13.06;75.92
76759;DHT22;65701;45.588;5.186;2023-05-10T05:20:47;13.21;75.87
76759;DHT22;65701;45.588;5.186;2023-05-10T05:23:13;13.35;75.84
76759;DHT22;65701;45.588;5.186;2023-05-10T05:25:38;13.52;75.88
76759;DHT22;65701;45.588;5.186;2023-05-10T05:28:04;13.68;75.89
76759;DHT22;65701;45.588;5.186;2023-05-10T05:30:29;13.78;75.67
76759;DHT22;65701;45.588;5.186;2023-05-10T05:32:55;13.95;75.40
76759;DHT22;65701;45.588;5.186;2023-05-10T05:35:20;14.06;75.38
76759;DHT22;65701;45.588;5.186;2023-05-10T05:37:46;14.21;75.32
76759;DHT22;65701;45.588;5.186;2023-05-10T05:40:14;14.35;75.39
76759;DHT22;65701;45.588;5.186;2023-05-10T05:42:40;14.48;75.07
76759;DHT22;65701;45.588;5.186;2023-05-10T05:45:06;14.58;74.72
76759;DHT22;65701;45.588;5.186;2023-05-10T05:47:31;14.71;74.86
76759;DHT22;65701;45.588;5.186;2023-05-10T05:49:57;14.86;74.77
76759;DHT22;65701;45.588;5.186;2023-05-10T05:52:22;14.99;74.81
76759;DHT22;65701;45.588;5.186;2023-05-10T05:54:48;15.17;74.82
76759;DHT22;65701;45.588;5.186;2023-05-10T05:57:14;15.30;74.40
76759;DHT22;65701;45.588;5.186;2023-05-10T05:59:39;15.44;74.15
76759;DHT22;65701;45.588;5.186;2023-05-10T06:02:09;15.51;73.77
76759;DHT22;65701;45.588;5.186;2023-05-10T06:04:35;15.63;73.94
76759;DHT22;65701;45.588;5.186;2023-05-10T06:07:00;15.79;73.66
76759;DHT22;65701;45.588;5.186;2023-05-10T06:09:25;15.92;73.24
76759;DHT22;65701;45.588;5.186;2023-05-10T06:11:52;15.99;73.32
76759;DHT22;65701;45.588;5.186;2023-05-10T06:14:17;16.13;73.13
76759;DHT22;65701;45.588;5.186;2023-05-10T06:16:45;16.21;72.69
76759;DHT22;65701;45.588;5.186;2023-05-10T06:19:10;16.27;71.92
76759;DHT22;65701;45.588;5.186;2023-05-10T06:21:36;16.30;71.56
76759;DHT22;65701;45.588;5.186;2023-05-10T06:24:01;16.35;71.38
76759;DHT22;65701;45.588;5.186;2023-05-10T06:26:28;16.43;71.15
76759;DHT22;65701;45.588;5.186;2023-05-10T06:28:53;16.48;71.15
76759;DHT22;65701;45.588;5.186;2023-05-10T06:31:19;16.57;71.02
76759;DHT22;65701;45.588;5.186;2023-05-10T06:33:44;16.69;70.79
76759;DHT22;65701;45.588;5.186;2023-05-10T06:36:10;16.72;70.58
76759;DHT22;65701;45.588;5.186;2023-05-10T06:38:36;16.82;69.58
76759;DHT22;65701;45.588;5.186;2023-05-10T06:41:01;16.82;68.78
76759;DHT22;65701;45.588;5.186;2023-05-10T06:43:27;16.86;68.76
76759;DHT22;65701;45.588;5.186;2023-05-10T06:45:53;16.95;68.68
76759;DHT22;65701;45.588;5.186;2023-05-10T06:48:19;16.95;68.26
76759;DHT22;65701;45.588;5.186;2023-05-10T06:50:44;16.97;67.86
76759;DHT22;65701;45.588;5.186;2023-05-10T06:53:10;17.12;68.06
76759;DHT22;65701;45.588;5.186;2023-05-10T06:55:37;17.13;67.81
76759;DHT22;65701;45.588;5.186;2023-05-10T06:58:02;17.15;67.22
76759;DHT22;65701;45.588;5.186;2023-05-10T07:00:28;17.17;67.40
76759;DHT22;65701;45.588;5.186;2023-05-10T07:02:53;17.02;67.21
76759;DHT22;65701;45.588;5.186;2023-05-10T07:05:20;16.93;66.74
76759;DHT22;65701;45.588;5.186;2023-05-10T07:07:46;16.86;66.51
76759;DHT22;65701;45.588;5.186;2023-05-10T07:10:11;16.62;65.80
76759;DHT22;65701;45.588;5.186;2023-05-10T07:12:36;16.48;65.64
76759;DHT22;65701;45.588;5.186;2023-05-10T07:15:03;16.37;65.63
76759;DHT22;65701;45.588;5.186;2023-05-10T07:17:29;16.34;65.89
76759;DHT22;65701;45.588;5.186;2023-05-10T07:19:54;16.35;65.69
76759;DHT22;65701;45.588;5.186;2023-05-10T07:22:20;16.47;66.01
76759;DHT22;65701;45.588;5.186;2023-05-10T07:24:46;16.51;66.04
76759;DHT22;65701;45.588;5.186;2023-05-10T07:27:11;16.65;66.30
76759;DHT22;65701;45.588;5.186;2023-05-10T07:29:38;16.67;66.36
76759;DHT22;65701;45.588;5.186;2023-05-10T07:32:04;16.61;65.94
76759;DHT22;65701;45.588;5.186;2023-05-10T07:34:30;16.75;65.51
76759;DHT22;65701;45.588;5.186;2023-05-10T07:37:00;16.73;65.35
76759;DHT22;65701;45.588;5.186;2023-05-10T07:39:29;16.60;65.34
76759;DHT22;65701;45.588;5.186;2023-05-10T07:41:55;16.34;65.18
76759;DHT22;65701;45.588;5.186;2023-05-10T07:44:21;16.16;64.98
76759;DHT22;65701;45.588;5.186;2023-05-10T07:46:47;16.03;65.06
76759;DHT22;65701;45.588;5.186;2023-05-10T07:49:13;15.89;65.40
76759;DHT22;65701;45.588;5.186;2023-05-10T07:51:38;15.83;65.73
76759;DHT22;65701;45.588;5.186;2023-05-10T07:54:04;15.77;65.98
76759;DHT22;65701;45.588;5.186;2023-05-10T07:56:30;15.77;66.31
76759;DHT22;65701;45.588;5.186;2023-05-10T07:59:00;15.73;66.28
76759;DHT22;65701;45.588;5.186;2023-05-10T08:01:30;15.78;65.95
76759;DHT22;65701;45.588;5.186;2023-05-10T08:03:56;15.89;65.98
76759;DHT22;65701;45.588;5.186;2023-05-10T08:06:22;15.96;66.33
76759;DHT22;65701;45.588;5.186;2023-05-10T08:08:48;15.99;66.34
76759;DHT22;65701;45.588;5.186;2023-05-10T08:11:21;16.06;66.53
76759;DHT22;65701;45.588;5.186;2023-05-10T08:13:48;16.10;66.79
76759;DHT22;65701;45.588;5.186;2023-05-10T08:16:15;16.13;66.77
76759;DHT22;65701;45.588;5.186;2023-05-10T08:18:44;16.18;66.47
76759;DHT22;65701;45.588;5.186;2023-05-10T08:21:12;16.24;66.53
76759;DHT22;65701;45.588;5.186;2023-05-10T08:23:37;16.14;64.83
76759;DHT22;65701;45.588;5.186;2023-05-10T08:26:03;16.05;62.92
76759;DHT22;65701;45.588;5.186;2023-05-10T08:28:28;15.92;62.14
76759;DHT22;65701;45.588;5.186;2023-05-10T08:30:55;15.95;61.99
76759;DHT22;65701;45.588;5.186;2023-05-10T08:33:21;16.03;62.38
76759;DHT22;65701;45.588;5.186;2023-05-10T08:35:46;16.14;63.01
76759;DHT22;65701;45.588;5.186;2023-05-10T08:38:12;16.24;63.81
76759;DHT22;65701;45.588;5.186;2023-05-10T08:40:38;16.31;64.20
76759;DHT22;65701;45.588;5.186;2023-05-10T08:43:06;16.34;63.46
76759;DHT22;65701;45.588;5.186;2023-05-10T08:45:42;16.31;63.24
76759;DHT22;65701;45.588;5.186;2023-05-10T08:48:10;16.28;63.35
76759;DHT22;65701;45.588;5.186;2023-05-10T08:50:37;16.28;63.73
76759;DHT22;65701;45.588;5.186;2023-05-10T08:53:05;16.31;64.00
76759;DHT22;65701;45.588;5.186;2023-05-10T08:55:32;16.34;63.36
76759;DHT22;65701;45.588;5.186;2023-05-10T08:57:59;16.37;63.37
76759;DHT22;65701;45.588;5.186;2023-05-10T09:00:25;16.35;62.88
76759;DHT22;65701;45.588;5.186;2023-05-10T09:02:51;16.03;61.85
76759;DHT22;65701;45.588;5.186;2023-05-10T09:05:17;16.14;62.31
76759;DHT22;65701;45.588;5.186;2023-05-10T09:07:43;16.05;62.56
76759;DHT22;65701;45.588;5.186;2023-05-10T09:10:09;15.92;62.89
76759;DHT22;65701;45.588;5.186;2023-05-10T09:12:36;15.77;63.00
76759;DHT22;65701;45.588;5.186;2023-05-10T09:15:02;15.73;63.38
76759;DHT22;65701;45.588;5.186;2023-05-10T09:17:30;15.63;63.48
76759;DHT22;65701;45.588;5.186;2023-05-10T09:20:02;15.62;63.65
76759;DHT22;65701;45.588;5.186;2023-05-10T09:22:30;15.55;63.87
76759;DHT22;65701;45.588;5.186;2023-05-10T09:25:12;15.42;63.55
76759;DHT22;65701;45.588;5.186;2023-05-10T09:27:40;15.35;63.43
76759;DHT22;65701;45.588;5.186;2023-05-10T09:30:07;15.40;63.91
76759;DHT22;65701;45.588;5.186;2023-05-10T09:32:37;15.33;63.58
76759;DHT22;65701;45.588;5.186;2023-05-10T09:35:23;15.22;62.88
76759;DHT22;65701;45.588;5.186;2023-05-10T09:37:50;15.08;62.72
76759;DHT22;65701;45.588;5.186;2023-05-10T09:40:18;15.22;62.80
76759;DHT22;65701;45.588;5.186;2023-05-10T09:43:10;15.14;62.25
76759;DHT22;65701;45.588;5.186;2023-05-10T09:45:36;15.26;62.46
76759;DHT22;65701;45.588;5.186;2023-05-10T09:48:02;15.38;62.86
76759;DHT22;65701;45.588;5.186;2023-05-10T09:50:29;15.48;63.05
76759;DHT22;65701;45.588;5.186;2023-05-10T09:52:59;15.63;63.73
76759;DHT22;65701;45.588;5.186;2023-05-10T09:58:03;15.93;63.25
76759;DHT22;65701;45.588;5.186;2023-05-10T10:00:34;15.89;63.04
76759;DHT22;65701;45.588;5.186;2023-05-10T10:03:01;15.92;62.57
76759;DHT22;65701;45.588;5.186;2023-05-10T10:05:30;15.95;62.77
76759;DHT22;65701;45.588;5.186;2023-05-10T10:08:00;16.05;63.46
76759;DHT22;65701;45.588;5.186;2023-05-10T10:10:26;16.13;63.87
76759;DHT22;65701;45.588;5.186;2023-05-10T10:12:53;16.24;64.12
76759;DHT22;65701;45.588;5.186;2023-05-10T10:15:20;16.24;63.83
76759;DHT22;65701;45.588;5.186;2023-05-10T10:17:46;15.88;62.72
76759;DHT22;65701;45.588;5.186;2023-05-10T10:20:13;15.85;62.48
76759;DHT22;65701;45.588;5.186;2023-05-10T10:22:39;15.63;62.50
76759;DHT22;65701;45.588;5.186;2023-05-10T10:25:05;15.37;62.65
76759;DHT22;65701;45.588;5.186;2023-05-10T10:27:45;15.42;63.25
76759;DHT22;65701;45.588;5.186;2023-05-10T10:36:05;15.16;64.56
76759;DHT22;65701;45.588;5.186;2023-05-10T10:41:37;15.30;64.91
76759;DHT22;65701;45.588;5.186;2023-05-10T10:47:04;15.57;64.73
76759;DHT22;65701;45.588;5.186;2023-05-10T10:49:48;15.68;63.96
76759;DHT22;65701;45.588;5.186;2023-05-10T10:57:20;15.93;62.78
76759;DHT22;65701;45.588;5.186;2023-05-10T10:59:51;15.96;62.17
76759;DHT22;65701;45.588;5.186;2023-05-10T11:03:04;15.96;62.25
76759;DHT22;65701;45.588;5.186;2023-05-10T11:08:48;15.85;61.47
76759;DHT22;65701;45.588;5.186;2023-05-10T11:13:37;15.85;61.69
76759;DHT22;65701;45.588;5.186;2023-05-10T11:16:14;15.90;62.01
76759;DHT22;65701;45.588;5.186;2023-05-10T11:18:40;15.89;61.46
76759;DHT22;65701;45.588;5.186;2023-05-10T11:21:08;15.95;61.66
76759;DHT22;65701;45.588;5.186;2023-05-10T11:23:48;16.06;61.97
76759;DHT22;65701;45.588;5.186;2023-05-10T11:26:14;16.17;61.95
76759;DHT22;65701;45.588;5.186;2023-05-10T11:28:47;16.27;62.26
76759;DHT22;65701;45.588;5.186;2023-05-10T11:31:17;16.35;61.75
76759;DHT22;65701;45.588;5.186;2023-05-10T11:33:51;16.45;61.87
76759;DHT22;65701;45.588;5.186;2023-05-10T11:36:18;16.57;62.30
76759;DHT22;65701;45.588;5.186;2023-05-10T11:38:45;16.58;61.88
76759;DHT22;65701;45.588;5.186;2023-05-10T11:41:11;16.64;61.85
76759;DHT22;65701;45.588;5.186;2023-05-10T11:43:40;16.60;60.67
76759;DHT22;65701;45.588;5.186;2023-05-10T11:46:08;16.64;60.69
76759;DHT22;65701;45.588;5.186;2023-05-10T11:48:34;16.79;61.00
76759;DHT22;65701;45.588;5.186;2023-05-10T11:51:01;16.80;60.40
76759;DHT22;65701;45.588;5.186;2023-05-10T11:53:31;16.93;60.32
76759;DHT22;65701;45.588;5.186;2023-05-10T11:56:07;16.99;60.45
76759;DHT22;65701;45.588;5.186;2023-05-10T11:58:33;17.07;60.33
76759;DHT22;65701;45.588;5.186;2023-05-10T12:01:05;17.07;60.23
76759;DHT22;65701;45.588;5.186;2023-05-10T12:03:31;17.15;60.13
76759;DHT22;65701;45.588;5.186;2023-05-10T12:05:58;17.24;60.23
76759;DHT22;65701;45.588;5.186;2023-05-10T12:08:26;17.33;60.35
76759;DHT22;65701;45.588;5.186;2023-05-10T12:10:54;17.38;59.07
76759;DHT22;65701;45.588;5.186;2023-05-10T12:13:28;17.35;57.52
76759;DHT22;65701;45.588;5.186;2023-05-10T12:15:57;17.43;58.08
76759;DHT22;65701;45.588;5.186;2023-05-10T12:18:24;17.50;57.39
76759;DHT22;65701;45.588;5.186;2023-05-10T12:20:52;17.41;57.46
76759;DHT22;65701;45.588;5.186;2023-05-10T12:23:19;17.47;56.89
76759;DHT22;65701;45.588;5.186;2023-05-10T12:25:45;17.33;56.57
76759;DHT22;65701;45.588;5.186;2023-05-10T12:28:11;17.23;56.36
76759;DHT22;65701;45.588;5.186;2023-05-10T12:30:36;17.10;56.48
76759;DHT22;65701;45.588;5.186;2023-05-10T12:33:12;17.09;56.41
76759;DHT22;65701;45.588;5.186;2023-05-10T12:35:47;17.16;57.25
76759;DHT22;65701;45.588;5.186;2023-05-10T12:38:29;17.33;58.97
76759;DHT22;65701;45.588;5.186;2023-05-10T12:41:01;17.47;58.20
76759;DHT22;65701;45.588;5.186;2023-05-10T12:43:29;17.58;58.31
76759;DHT22;65701;45.588;5.186;2023-05-10T12:45:54;17.61;58.15
76759;DHT22;65701;45.588;5.186;2023-05-10T12:48:20;17.64;57.77
76759;DHT22;65701;45.588;5.186;2023-05-10T12:50:46;17.74;58.08
76759;DHT22;65701;45.588;5.186;2023-05-10T12:53:13;17.71;57.20
76759;DHT22;65701;45.588;5.186;2023-05-10T12:55:41;17.79;56.94
76759;DHT22;65701;45.588;5.186;2023-05-10T12:58:06;17.82;56.86
76759;DHT22;65701;45.588;5.186;2023-05-10T13:00:32;17.93;57.98
76759;DHT22;65701;45.588;5.186;2023-05-10T13:02:57;17.99;58.01
76759;DHT22;65701;45.588;5.186;2023-05-10T13:05:23;17.95;57.97
76759;DHT22;65701;45.588;5.186;2023-05-10T13:07:48;18.00;58.21
76759;DHT22;65701;45.588;5.186;2023-05-10T13:10:14;18.09;58.23
76759;DHT22;65701;45.588;5.186;2023-05-10T13:12:39;18.14;58.19
76759;DHT22;65701;45.588;5.186;2023-05-10T13:15:06;18.37;58.22
76759;DHT22;65701;45.588;5.186;2023-05-10T13:17:32;18.54;58.40
76759;DHT22;65701;45.588;5.186;2023-05-10T13:19:57;18.65;58.49
76759;DHT22;65701;45.588;5.186;2023-05-10T13:22:23;18.76;58.72
76759;DHT22;65701;45.588;5.186;2023-05-10T13:24:48;18.76;58.65
76759;DHT22;65701;45.588;5.186;2023-05-10T13:27:14;18.81;58.61
76759;DHT22;65701;45.588;5.186;2023-05-10T13:29:40;18.87;58.34
76759;DHT22;65701;45.588;5.186;2023-05-10T13:32:06;18.84;57.47
76759;DHT22;65701;45.588;5.186;2023-05-10T13:34:31;18.82;57.54
76759;DHT22;65701;45.588;5.186;2023-05-10T13:36:57;18.71;56.43
76759;DHT22;65701;45.588;5.186;2023-05-10T13:39:23;18.71;56.21
76759;DHT22;65701;45.588;5.186;2023-05-10T13:41:49;18.62;56.26
76759;DHT22;65701;45.588;5.186;2023-05-10T13:44:14;18.60;55.06
76759;DHT22;65701;45.588;5.186;2023-05-10T13:46:41;18.45;54.91
76759;DHT22;65701;45.588;5.186;2023-05-10T13:49:08;18.24;54.43
76759;DHT22;65701;45.588;5.186;2023-05-10T13:51:34;18.27;54.20
76759;DHT22;65701;45.588;5.186;2023-05-10T13:54:00;17.98;53.42
76759;DHT22;65701;45.588;5.186;2023-05-10T13:56:25;18.13;54.48
76759;DHT22;65701;45.588;5.186;2023-05-10T13:58:51;18.16;54.97
76759;DHT22;65701;45.588;5.186;2023-05-10T14:01:17;17.98;54.87
76759;DHT22;65701;45.588;5.186;2023-05-10T14:03:42;17.83;54.09
76759;DHT22;65701;45.588;5.186;2023-05-10T14:06:08;17.67;53.79
76759;DHT22;65701;45.588;5.186;2023-05-10T14:08:35;17.82;54.23
76759;DHT22;65701;45.588;5.186;2023-05-10T14:11:01;17.82;55.16
76759;DHT22;65701;45.588;5.186;2023-05-10T14:13:26;17.75;54.14
76759;DHT22;65701;45.588;5.186;2023-05-10T14:15:53;17.74;53.88
76759;DHT22;65701;45.588;5.186;2023-05-10T14:18:19;17.68;53.55
76759;DHT22;65701;45.588;5.186;2023-05-10T14:20:45;17.71;53.71
76759;DHT22;65701;45.588;5.186;2023-05-10T14:23:10;17.67;54.04
76759;DHT22;65701;45.588;5.186;2023-05-10T14:25:36;17.74;54.14
76759;DHT22;65701;45.588;5.186;2023-05-10T14:28:03;17.79;54.98
76759;DHT22;65701;45.588;5.186;2023-05-10T14:30:28;17.93;55.63
76759;DHT22;65701;45.588;5.186;2023-05-10T14:32:56;17.96;55.57
76759;DHT22;65701;45.588;5.186;2023-05-10T14:35:24;17.98;55.16
76759;DHT22;65701;45.588;5.186;2023-05-10T14:37:50;17.90;55.20
76759;DHT22;65701;45.588;5.186;2023-05-10T14:40:15;17.85;54.62
76759;DHT22;65701;45.588;5.186;2023-05-10T14:42:42;17.74;54.04
76759;DHT22;65701;45.588;5.186;2023-05-10T14:45:09;17.54;53.85
76759;DHT22;65701;45.588;5.186;2023-05-10T14:47:35;17.33;53.79
76759;DHT22;65701;45.588;5.186;2023-05-10T14:50:00;17.24;54.09
76759;DHT22;65701;45.588;5.186;2023-05-10T14:52:26;17.00;54.63
76759;DHT22;65701;45.588;5.186;2023-05-10T14:54:52;16.96;54.84
76759;DHT22;65701;45.588;5.186;2023-05-10T14:57:17;16.96;55.38
76759;DHT22;65701;45.588;5.186;2023-05-10T14:59:43;17.09;55.79
76759;DHT22;65701;45.588;5.186;2023-05-10T15:02:08;17.23;56.19
76759;DHT22;65701;45.588;5.186;2023-05-10T15:04:35;17.30;56.03
76759;DHT22;65701;45.588;5.186;2023-05-10T15:07:01;17.35;55.39
76759;DHT22;65701;45.588;5.186;2023-05-10T15:09:26;17.40;55.19
76759;DHT22;65701;45.588;5.186;2023-05-10T15:11:55;17.27;54.99
76759;DHT22;65701;45.588;5.186;2023-05-10T15:14:23;17.33;54.95
76759;DHT22;65701;45.588;5.186;2023-05-10T15:16:54;17.20;54.74
76759;DHT22;65701;45.588;5.186;2023-05-10T15:19:20;17.19;54.47
76759;DHT22;65701;45.588;5.186;2023-05-10T15:21:46;17.17;54.66
76759;DHT22;65701;45.588;5.186;2023-05-10T15:24:12;17.17;55.28
76759;DHT22;65701;45.588;5.186;2023-05-10T15:26:38;17.20;55.84
76759;DHT22;65701;45.588;5.186;2023-05-10T15:29:03;17.24;56.20
76759;DHT22;65701;45.588;5.186;2023-05-10T15:31:29;17.17;55.82
76759;DHT22;65701;45.588;5.186;2023-05-10T15:33:57;17.19;54.89
76759;DHT22;65701;45.588;5.186;2023-05-10T15:36:28;17.16;55.05
76759;DHT22;65701;45.588;5.186;2023-05-10T15:38:56;17.10;54.65
76759;DHT22;65701;45.588;5.186;2023-05-10T15:41:23;17.06;54.55
76759;DHT22;65701;45.588;5.186;2023-05-10T15:43:50;17.15;54.90
76759;DHT22;65701;45.588;5.186;2023-05-10T15:46:15;17.20;54.53
76759;DHT22;65701;45.588;5.186;2023-05-10T15:48:41;17.22;55.05
76759;DHT22;65701;45.588;5.186;2023-05-10T15:51:06;17.26;55.16
76759;DHT22;65701;45.588;5.186;2023-05-10T15:53:32;17.27;55.11
76759;DHT22;65701;45.588;5.186;2023-05-10T15:55:57;17.31;55.33
76759;DHT22;65701;45.588;5.186;2023-05-10T15:58:23;17.38;55.62
76759;DHT22;65701;45.588;5.186;2023-05-10T16:00:49;17.45;55.63
76759;DHT22;65701;45.588;5.186;2023-05-10T16:03:14;17.40;55.43
76759;DHT22;65701;45.588;5.186;2023-05-10T16:05:40;17.31;54.72
76759;DHT22;65701;45.588;5.186;2023-05-10T16:08:05;17.35;55.47
76759;DHT22;65701;45.588;5.186;2023-05-10T16:10:31;17.24;56.05
76759;DHT22;65701;45.588;5.186;2023-05-10T16:12:57;17.02;56.19
76759;DHT22;65701;45.588;5.186;2023-05-10T16:15:24;16.99;56.05
76759;DHT22;65701;45.588;5.186;2023-05-10T16:17:52;16.89;56.09
76759;DHT22;65701;45.588;5.186;2023-05-10T16:20:20;16.86;56.14
76759;DHT22;65701;45.588;5.186;2023-05-10T16:22:47;16.73;56.42
76759;DHT22;65701;45.588;5.186;2023-05-10T16:25:12;16.71;56.37
76759;DHT22;65701;45.588;5.186;2023-05-10T16:27:38;16.69;56.65
76759;DHT22;65701;45.588;5.186;2023-05-10T16:30:07;16.62;56.83
76759;DHT22;65701;45.588;5.186;2023-05-10T16:32:34;16.60;56.75
76759;DHT22;65701;45.588;5.186;2023-05-10T16:35:01;16.62;56.98
76759;DHT22;65701;45.588;5.186;2023-05-10T16:37:27;16.67;57.42
76759;DHT22;65701;45.588;5.186;2023-05-10T16:39:54;16.65;57.72
76759;DHT22;65701;45.588;5.186;2023-05-10T16:42:19;16.69;57.63
76759;DHT22;65701;45.588;5.186;2023-05-10T16:44:45;16.76;57.44
76759;DHT22;65701;45.588;5.186;2023-05-10T16:47:11;16.71;57.33
76759;DHT22;65701;45.588;5.186;2023-05-10T16:49:36;16.75;57.21
76759;DHT22;65701;45.588;5.186;2023-05-10T16:52:04;16.67;57.32
76759;DHT22;65701;45.588;5.186;2023-05-10T16:54:32;16.69;57.14
76759;DHT22;65701;45.588;5.186;2023-05-10T16:56:58;16.69;57.18
76759;DHT22;65701;45.588;5.186;2023-05-10T16:59:24;16.67;57.02
76759;DHT22;65701;45.588;5.186;2023-05-10T17:01:49;16.71;56.99
76759;DHT22;65701;45.588;5.186;2023-05-10T17:04:17;16.71;56.50
76759;DHT22;65701;45.588;5.186;2023-05-10T17:06:43;16.75;56.88
76759;DHT22;65701;45.588;5.186;2023-05-10T17:09:08;16.78;57.30
76759;DHT22;65701;45.588;5.186;2023-05-10T17:11:34;16.80;57.57
76759;DHT22;65701;45.588;5.186;2023-05-10T17:14:00;16.82;57.62
76759;DHT22;65701;45.588;5.186;2023-05-10T17:16:25;16.78;57.84
76759;DHT22;65701;45.588;5.186;2023-05-10T17:18:51;16.76;57.70
76759;DHT22;65701;45.588;5.186;2023-05-10T17:21:18;16.71;57.38
76759;DHT22;65701;45.588;5.186;2023-05-10T17:23:43;16.62;57.09
76759;DHT22;65701;45.588;5.186;2023-05-10T17:26:11;16.62;56.70
76759;DHT22;65701;45.588;5.186;2023-05-10T17:28:39;16.50;56.99
76759;DHT22;65701;45.588;5.186;2023-05-10T17:31:06;16.48;57.18
76759;DHT22;65701;45.588;5.186;2023-05-10T17:33:31;16.54;57.69
76759;DHT22;65701;45.588;5.186;2023-05-10T17:35:57;16.51;57.85
76759;DHT22;65701;45.588;5.186;2023-05-10T17:38:23;16.51;57.75
76759;DHT22;65701;45.588;5.186;2023-05-10T17:40:50;16.51;58.03
76759;DHT22;65701;45.588;5.186;2023-05-10T17:43:15;16.34;57.65
76759;DHT22;65701;45.588;5.186;2023-05-10T17:45:41;16.28;57.26
76759;DHT22;65701;45.588;5.186;2023-05-10T17:48:06;16.30;57.26
76759;DHT22;65701;45.588;5.186;2023-05-10T17:50:32;16.27;57.18
76759;DHT22;65701;45.588;5.186;2023-05-10T17:52:57;16.34;57.56
76759;DHT22;65701;45.588;5.186;2023-05-10T17:55:23;16.31;57.63
76759;DHT22;65701;45.588;5.186;2023-05-10T17:57:51;16.35;57.71
76759;DHT22;65701;45.588;5.186;2023-05-10T18:00:19;16.35;57.78
76759;DHT22;65701;45.588;5.186;2023-05-10T18:02:47;16.40;57.90
76759;DHT22;65701;45.588;5.186;2023-05-10T18:05:16;16.40;58.04
76759;DHT22;65701;45.588;5.186;2023-05-10T18:07:42;16.40;58.05
76759;DHT22;65701;45.588;5.186;2023-05-10T18:10:09;16.38;57.99
76759;DHT22;65701;45.588;5.186;2023-05-10T18:12:35;16.30;58.34
76759;DHT22;65701;45.588;5.186;2023-05-10T18:15:01;16.16;58.54
76759;DHT22;65701;45.588;5.186;2023-05-10T18:17:28;16.10;58.77
76759;DHT22;65701;45.588;5.186;2023-05-10T18:19:54;16.10;59.12
76759;DHT22;65701;45.588;5.186;2023-05-10T18:22:20;16.06;59.26
76759;DHT22;65701;45.588;5.186;2023-05-10T18:24:46;16.07;59.42
76759;DHT22;65701;45.588;5.186;2023-05-10T18:27:12;16.02;59.75
76759;DHT22;65701;45.588;5.186;2023-05-10T18:29:40;16.02;59.94
76759;DHT22;65701;45.588;5.186;2023-05-10T18:32:07;16.03;60.07
76759;DHT22;65701;45.588;5.186;2023-05-10T18:34:32;16.00;60.34
76759;DHT22;65701;45.588;5.186;2023-05-10T18:36:59;15.96;60.40
76759;DHT22;65701;45.588;5.186;2023-05-10T18:39:28;15.93;60.49
76759;DHT22;65701;45.588;5.186;2023-05-10T18:41:54;15.93;60.71
76759;DHT22;65701;45.588;5.186;2023-05-10T18:44:20;15.89;60.82
76759;DHT22;65701;45.588;5.186;2023-05-10T18:46:47;15.86;60.99
76759;DHT22;65701;45.588;5.186;2023-05-10T18:49:16;15.81;61.00
76759;DHT22;65701;45.588;5.186;2023-05-10T18:51:42;15.75;61.10
76759;DHT22;65701;45.588;5.186;2023-05-10T18:54:07;15.75;61.15
76759;DHT22;65701;45.588;5.186;2023-05-10T18:56:33;15.72;61.20
76759;DHT22;65701;45.588;5.186;2023-05-10T18:58:58;15.71;61.46
76759;DHT22;65701;45.588;5.186;2023-05-10T19:01:24;15.65;61.74
76759;DHT22;65701;45.588;5.186;2023-05-10T19:03:50;15.62;62.07
76759;DHT22;65701;45.588;5.186;2023-05-10T19:06:15;15.58;62.34
76759;DHT22;65701;45.588;5.186;2023-05-10T19:08:41;15.52;62.47
76759;DHT22;65701;45.588;5.186;2023-05-10T19:11:11;15.44;62.79
76759;DHT22;65701;45.588;5.186;2023-05-10T19:13:37;15.31;63.01
76759;DHT22;65701;45.588;5.186;2023-05-10T19:16:04;15.20;63.27
76759;DHT22;65701;45.588;5.186;2023-05-10T19:18:30;15.13;63.46
76759;DHT22;65701;45.588;5.186;2023-05-10T19:20:58;15.04;63.58
76759;DHT22;65701;45.588;5.186;2023-05-10T19:26:30;14.83;64.04
76759;DHT22;65701;45.588;5.186;2023-05-10T19:28:57;14.78;64.30
76759;DHT22;65701;45.588;5.186;2023-05-10T19:31:24;14.68;64.39
76759;DHT22;65701;45.588;5.186;2023-05-10T19:33:49;14.62;64.45
76759;DHT22;65701;45.588;5.186;2023-05-10T19:36:15;14.55;64.67
76759;DHT22;65701;45.588;5.186;2023-05-10T19:38:44;14.51;65.09
76759;DHT22;65701;45.588;5.186;2023-05-10T19:41:12;14.48;65.24
76759;DHT22;65701;45.588;5.186;2023-05-10T19:43:40;14.44;65.24
76759;DHT22;65701;45.588;5.186;2023-05-10T19:46:14;14.38;65.28
76759;DHT22;65701;45.588;5.186;2023-05-10T19:48:41;14.33;65.17
76759;DHT22;65701;45.588;5.186;2023-05-10T19:51:08;14.25;65.22
76759;DHT22;65701;45.588;5.186;2023-05-10T19:53:35;14.27;65.48
76759;DHT22;65701;45.588;5.186;2023-05-10T19:56:10;14.18;65.75
76759;DHT22;65701;45.588;5.186;2023-05-10T19:58:42;14.10;65.60
76759;DHT22;65701;45.588;5.186;2023-05-10T20:01:14;14.04;65.63
76759;DHT22;65701;45.588;5.186;2023-05-10T20:03:46;13.97;65.85
76759;DHT22;65701;45.588;5.186;2023-05-10T20:06:11;13.90;66.06
76759;DHT22;65701;45.588;5.186;2023-05-10T20:08:39;13.83;66.19
76759;DHT22;65701;45.588;5.186;2023-05-10T20:11:08;13.73;66.17
76759;DHT22;65701;45.588;5.186;2023-05-10T20:13:33;13.65;66.17
76759;DHT22;65701;45.588;5.186;2023-05-10T20:15:59;13.62;66.19
76759;DHT22;65701;45.588;5.186;2023-05-10T20:18:25;13.57;66.48
76759;DHT22;65701;45.588;5.186;2023-05-10T20:20:58;13.48;66.55
76759;DHT22;65701;45.588;5.186;2023-05-10T20:23:26;13.42;66.78
76759;DHT22;65701;45.588;5.186;2023-05-10T20:25:52;13.34;66.79
76759;DHT22;65701;45.588;5.186;2023-05-10T20:28:23;13.24;66.84
76759;DHT22;65701;45.588;5.186;2023-05-10T20:43:46;12.83;67.81
76759;DHT22;65701;45.588;5.186;2023-05-10T20:46:11;12.80;67.83
76759;DHT22;65701;45.588;5.186;2023-05-10T20:48:39;12.76;67.94
76759;DHT22;65701;45.588;5.186;2023-05-10T20:51:05;12.76;67.84
76759;DHT22;65701;45.588;5.186;2023-05-10T20:53:32;12.75;68.06
76759;DHT22;65701;45.588;5.186;2023-05-10T20:56:04;12.73;68.86
76759;DHT22;65701;45.588;5.186;2023-05-10T20:58:36;12.72;69.38
76759;DHT22;65701;45.588;5.186;2023-05-10T21:01:02;12.68;70.16
76759;DHT22;65701;45.588;5.186;2023-05-10T21:03:28;12.65;69.91
76759;DHT22;65701;45.588;5.186;2023-05-10T21:05:55;12.69;69.38
76759;DHT22;65701;45.588;5.186;2023-05-10T21:08:28;12.73;69.58
76759;DHT22;65701;45.588;5.186;2023-05-10T21:11:02;12.77;69.45
76759;DHT22;65701;45.588;5.186;2023-05-10T21:13:36;12.80;69.61
76759;DHT22;65701;45.588;5.186;2023-05-10T21:16:09;12.83;69.54
76759;DHT22;65701;45.588;5.186;2023-05-10T21:18:40;12.89;69.63
76759;DHT22;65701;45.588;5.186;2023-05-10T21:21:10;12.89;70.76
76759;DHT22;65701;45.588;5.186;2023-05-10T21:23:38;12.87;70.66
76759;DHT22;65701;45.588;5.186;2023-05-10T21:26:04;12.85;70.34
76759;DHT22;65701;45.588;5.186;2023-05-10T21:28:30;12.87;70.07